createdAt,value
2022-11-20T00:00:51.370Z,22.25
2022-11-20T00:03:18.353Z,19.77
2022-11-20T00:05:45.480Z,19.58
2022-11-20T00:08:12.801Z,18.42
2022-11-20T00:10:42.483Z,17.02
2022-11-20T00:13:09.191Z,18.10
2022-11-20T00:15:35.761Z,18.90
2022-11-20T00:18:02.405Z,19.15
2022-11-20T00:20:28.996Z,18.10
2022-11-20T00:22:55.785Z,17.13
2022-11-20T00:25:22.494Z,18.23
2022-11-20T00:27:49.057Z,17.50
2022-11-20T00:30:15.939Z,17.80
2022-11-20T00:32:42.682Z,16.98
2022-11-20T00:35:09.504Z,17.08
2022-11-20T00:37:36.153Z,19.10
2022-11-20T00:40:02.880Z,17.23
2022-11-20T00:42:29.769Z,17.08
2022-11-20T00:44:56.460Z,17.98
2022-11-20T00:47:23.070Z,17.48
2022-11-20T00:49:49.647Z,16.90
2022-11-20T00:52:16.216Z,16.13
2022-11-20T00:54:42.865Z,17.92
2022-11-20T00:57:09.447Z,16.88
2022-11-20T00:59:36.140Z,16.73
2022-11-20T01:02:02.950Z,17.17
2022-11-20T01:04:30.117Z,17.33
2022-11-20T01:06:56.701Z,18.15
2022-11-20T01:09:23.691Z,17.75
2022-11-20T01:11:50.482Z,18.48
2022-11-20T01:14:20.088Z,19.42
2022-11-20T01:19:21.037Z,18.00
2022-11-20T01:21:51.293Z,17.38
2022-11-20T01:24:20.043Z,17.27
2022-11-20T01:26:49.482Z,18.60
2022-11-20T01:29:20.290Z,16.95
2022-11-20T01:31:47.217Z,16.92
2022-11-20T01:34:16.703Z,16.67
2022-11-20T01:36:45.205Z,16.38
2022-11-20T01:39:18.130Z,17.00
2022-11-20T01:42:09.641Z,16.88
2022-11-20T01:44:49.255Z,16.33
2022-11-20T01:47:22.073Z,13.25
2022-11-20T01:49:53.677Z,16.25
2022-11-20T01:52:25.167Z,16.17
2022-11-20T01:55:01.467Z,15.65
2022-11-20T01:57:31.778Z,17.23
2022-11-20T02:00:05.284Z,16.85
2022-11-20T02:02:41.779Z,17.45
2022-11-20T02:05:34.879Z,16.15
2022-11-20T02:08:03.271Z,17.27
2022-11-20T02:10:30.712Z,16.90
2022-11-20T02:13:16.277Z,16.65
2022-11-20T02:15:43.909Z,17.70
2022-11-20T02:18:12.593Z,17.92
2022-11-20T02:20:43.245Z,16.45
2022-11-20T02:23:17.870Z,16.83
2022-11-20T02:25:46.926Z,17.23
2022-11-20T02:28:14.137Z,17.17
2022-11-20T02:30:40.938Z,17.98
2022-11-20T02:33:07.780Z,16.60
2022-11-20T02:35:34.488Z,16.70
2022-11-20T02:38:03.616Z,17.92
2022-11-20T02:40:30.547Z,17.35
2022-11-20T02:42:57.871Z,18.00
2022-11-20T02:45:25.690Z,17.42
2022-11-20T02:47:52.722Z,18.35
2022-11-20T02:50:19.454Z,17.42
2022-11-20T02:52:46.270Z,21.00
2022-11-20T02:55:13.150Z,19.77
2022-11-20T02:57:39.774Z,18.35
2022-11-20T03:00:07.932Z,19.60
2022-11-20T03:02:34.745Z,19.73
2022-11-20T03:05:01.992Z,19.27
2022-11-20T03:07:28.686Z,17.58
2022-11-20T03:09:55.416Z,18.58
2022-11-20T03:12:22.078Z,17.80
2022-11-20T03:14:52.763Z,23.77
2022-11-20T03:17:20.104Z,23.48
2022-11-20T03:19:46.738Z,24.48
2022-11-20T03:22:13.301Z,30.60
2022-11-20T03:24:39.964Z,24.60
2022-11-20T03:27:06.530Z,22.90
2022-11-20T03:29:33.496Z,22.90
2022-11-20T03:32:00.140Z,22.42
2022-11-20T03:34:26.856Z,20.67
2022-11-20T03:36:53.429Z,20.75
2022-11-20T03:39:20.494Z,20.90
2022-11-20T03:41:47.382Z,19.33
2022-11-20T03:44:13.942Z,19.38
2022-11-20T03:46:40.657Z,18.17
2022-11-20T03:49:07.907Z,17.30
2022-11-20T03:51:36.719Z,16.80
2022-11-20T03:54:08.210Z,14.30
2022-11-20T03:56:37.747Z,16.27
2022-11-20T04:01:34.701Z,15.45
2022-11-20T04:04:02.011Z,14.75
2022-11-20T04:06:30.947Z,14.73
2022-11-20T04:08:59.019Z,14.88
2022-11-20T04:11:31.554Z,14.88
2022-11-20T04:14:00.425Z,14.95
2022-11-20T04:16:29.989Z,14.65
2022-11-20T13:56:17.288Z,14.27
2022-11-20T13:59:14.599Z,15.98
2022-11-20T14:01:46.294Z,14.10
2022-11-20T14:04:21.463Z,18.90
2022-11-20T14:06:50.156Z,15.85
2022-11-20T14:09:28.986Z,15.23
2022-11-20T14:11:55.692Z,15.43
2022-11-20T14:14:26.076Z,15.05
2022-11-20T14:16:54.429Z,16.42
2022-11-20T14:19:25.987Z,16.85
2022-11-20T14:22:12.589Z,15.63
2022-11-20T14:24:39.528Z,14.65
2022-11-20T14:27:12.812Z,14.18
2022-11-20T14:29:49.097Z,15.55
2022-11-20T14:32:18.268Z,15.95
2022-11-20T14:34:47.472Z,16.30
2022-11-20T14:37:20.674Z,16.17
2022-11-20T14:39:53.454Z,16.10
2022-11-20T14:42:21.530Z,15.13
2022-11-20T14:44:50.520Z,16.10
2022-11-20T14:47:22.018Z,17.15
2022-11-20T14:49:50.316Z,16.77
2022-11-20T14:52:27.232Z,16.63
2022-11-20T14:55:00.683Z,15.88
2022-11-20T14:57:30.214Z,16.35
2022-11-20T15:00:15.386Z,16.30
2022-11-20T15:02:47.103Z,15.95
2022-11-20T15:05:14.760Z,19.08
2022-11-20T15:07:46.722Z,16.45
2022-11-20T15:10:24.597Z,17.58
2022-11-20T15:13:06.109Z,16.85
2022-11-20T15:15:44.890Z,17.00
2022-11-20T15:18:16.762Z,17.73
2022-11-20T15:20:44.591Z,17.60
2022-11-20T15:23:13.591Z,17.20
2022-11-20T15:25:43.618Z,18.50
2022-11-20T15:28:22.029Z,20.02
2022-11-20T15:30:50.515Z,18.33
2022-11-20T15:33:18.364Z,19.77
2022-11-20T15:35:45.489Z,17.17
2022-11-20T15:38:12.123Z,18.95
2022-11-20T15:40:38.848Z,18.00
2022-11-20T15:43:12.648Z,18.33
2022-11-20T15:45:50.552Z,17.85
2022-11-20T15:48:20.664Z,19.20
2022-11-20T15:51:04.161Z,19.63
2022-11-20T15:53:30.839Z,27.25
2022-11-20T15:55:57.460Z,24.52
2022-11-20T15:58:25.172Z,22.73
2022-11-20T16:00:52.048Z,24.38
2022-11-20T16:03:19.259Z,26.60
2022-11-20T16:05:45.873Z,23.17
2022-11-20T16:08:12.519Z,21.58
2022-11-20T16:10:40.164Z,20.40
2022-11-20T16:13:33.833Z,22.15
2022-11-20T16:16:14.154Z,21.92
2022-11-20T16:18:42.191Z,22.35
2022-11-20T16:21:14.067Z,22.70
2022-11-20T16:23:41.609Z,22.67
2022-11-20T16:26:12.398Z,22.60
2022-11-20T16:28:39.151Z,21.65
2022-11-20T16:31:17.653Z,21.27
2022-11-20T16:33:44.318Z,21.75
2022-11-20T16:36:12.751Z,20.80
2022-11-20T16:38:39.962Z,21.10
2022-11-20T16:41:07.302Z,22.05
2022-11-20T16:43:34.397Z,21.48
2022-11-20T16:46:04.492Z,20.52
2022-11-20T16:48:31.082Z,21.05
2022-11-20T16:50:57.697Z,21.10
2022-11-20T16:53:24.336Z,20.90
2022-11-20T16:55:50.929Z,20.13
2022-11-20T16:58:17.695Z,20.65
2022-11-20T17:00:51.187Z,19.77
2022-11-20T17:03:19.205Z,20.75
2022-11-20T17:05:46.052Z,20.88
2022-11-20T17:08:12.592Z,21.38
2022-11-20T17:10:39.216Z,21.17
2022-11-20T17:13:05.778Z,22.35
2022-11-20T17:15:32.388Z,22.40
2022-11-20T17:17:58.982Z,22.38
2022-11-20T17:20:25.561Z,22.23
2022-11-20T17:22:52.092Z,22.92
2022-11-20T17:25:18.842Z,21.17
2022-11-20T17:27:45.451Z,20.42
2022-11-20T17:30:12.142Z,21.20
2022-11-20T17:32:39.812Z,19.45
2022-11-20T17:35:06.644Z,19.73
2022-11-20T17:37:33.444Z,19.55
2022-11-20T17:40:00.183Z,19.00
2022-11-20T17:42:26.777Z,20.25
2022-11-20T17:44:53.684Z,22.98
2022-11-20T17:47:20.811Z,19.83
2022-11-20T17:49:54.386Z,19.55
2022-11-20T17:52:22.664Z,20.50
2022-11-20T17:54:49.256Z,19.67
2022-11-20T17:57:34.233Z,19.05
2022-11-20T18:00:00.856Z,18.60
2022-11-20T18:02:27.630Z,18.45
2022-11-20T18:04:54.255Z,18.25
2022-11-20T18:07:20.933Z,19.75
2022-11-20T18:09:47.541Z,18.85
2022-11-20T18:12:14.230Z,18.70
2022-11-20T18:14:41.759Z,18.70
2022-11-20T18:17:11.863Z,17.77
2022-11-20T18:19:48.036Z,17.63
2022-11-20T18:22:31.422Z,17.35
2022-11-20T18:24:58.366Z,17.23
2022-11-20T18:27:25.013Z,16.67
2022-11-20T18:29:52.321Z,18.45
2022-11-20T18:32:22.760Z,20.85
2022-11-20T18:34:50.007Z,21.05
2022-11-20T18:37:16.980Z,19.63
2022-11-20T18:39:44.065Z,20.80
2022-11-20T18:42:34.520Z,22.23
2022-11-20T18:45:05.144Z,25.17
2022-11-20T18:47:37.299Z,23.95
2022-11-20T18:50:05.752Z,23.80
2022-11-20T18:52:35.183Z,21.80
2022-11-20T18:55:02.896Z,21.60
2022-11-20T18:57:29.962Z,21.73
2022-11-20T19:00:03.486Z,20.25
2022-11-20T19:02:34.471Z,20.63
2022-11-20T19:05:05.364Z,19.27
2022-11-20T19:07:32.010Z,21.20
2022-11-20T19:10:03.462Z,20.67
2022-11-20T19:12:30.760Z,20.48
2022-11-20T19:14:57.671Z,18.48
2022-11-20T19:17:24.245Z,18.77
2022-11-20T19:19:51.181Z,19.92
2022-11-20T19:22:17.894Z,20.05
2022-11-20T19:24:44.465Z,19.25
2022-11-20T19:27:11.074Z,19.10
2022-11-20T19:29:38.456Z,19.92
2022-11-20T19:32:05.192Z,20.00
2022-11-20T19:34:31.914Z,20.70
2022-11-20T19:37:00.659Z,20.00
2022-11-20T19:39:27.430Z,15.70
2022-11-20T19:41:54.252Z,22.98
2022-11-20T19:44:21.006Z,22.17
2022-11-20T19:46:47.767Z,21.77
2022-11-20T19:49:14.910Z,26.45
2022-11-20T19:51:49.423Z,23.00
2022-11-20T19:54:16.985Z,23.55
2022-11-20T19:56:45.249Z,20.95
2022-11-20T19:59:12.228Z,21.60
2022-11-20T20:01:39.639Z,20.58
2022-11-20T20:04:07.161Z,20.33
2022-11-20T20:06:36.179Z,22.65
2022-11-20T20:09:06.141Z,20.80
2022-11-20T20:11:34.324Z,19.08
2022-11-20T20:14:05.963Z,19.70
2022-11-20T20:16:32.630Z,19.20
2022-11-20T20:19:01.733Z,18.83
2022-11-20T20:21:30.511Z,18.63
2022-11-20T20:23:58.162Z,19.17
2022-11-20T20:26:26.020Z,20.60
2022-11-20T20:28:52.829Z,18.73
2022-11-20T20:31:23.062Z,19.83
2022-11-20T20:33:50.015Z,19.83
2022-11-20T20:36:19.115Z,19.70
2022-11-20T20:38:46.506Z,20.02
2022-11-20T20:41:19.478Z,19.13
2022-11-20T20:44:05.134Z,19.63
2022-11-20T20:46:32.168Z,18.20
2022-11-20T20:48:59.663Z,18.23
2022-11-20T20:51:26.262Z,19.83
2022-11-20T20:53:53.758Z,18.95
2022-11-20T20:56:20.416Z,19.08
2022-11-20T20:58:46.974Z,18.23
2022-11-20T21:01:15.606Z,15.98
2022-11-20T21:03:42.335Z,15.90
2022-11-20T21:06:10.494Z,16.15
2022-11-20T21:08:40.608Z,16.15
2022-11-20T21:11:11.085Z,15.95
2022-11-20T21:13:39.162Z,14.65
2022-11-20T21:16:06.157Z,16.52
2022-11-20T21:18:33.341Z,15.88
2022-11-20T21:21:19.115Z,17.23
2022-11-20T21:23:46.701Z,16.77
2022-11-20T21:26:14.712Z,17.27
2022-11-20T21:28:42.156Z,16.40
2022-11-20T21:31:12.017Z,16.98
2022-11-20T21:33:42.634Z,16.40
2022-11-20T21:36:11.106Z,15.80
2022-11-20T21:38:37.732Z,16.00
2022-11-20T21:41:06.331Z,15.77
2022-11-20T21:43:33.211Z,16.35
2022-11-20T21:46:02.699Z,17.10
2022-11-20T21:48:31.183Z,18.83
2022-11-20T21:51:07.013Z,18.08
2022-11-20T21:53:34.260Z,17.33
2022-11-20T21:56:01.124Z,17.98
2022-11-20T21:58:28.319Z,18.33
2022-11-20T22:00:55.051Z,18.35
2022-11-20T22:03:22.041Z,18.95
2022-11-20T22:05:56.613Z,18.98
2022-11-20T22:08:24.147Z,19.90
2022-11-20T22:10:59.136Z,20.35
2022-11-20T22:13:45.373Z,20.80
2022-11-20T22:16:12.586Z,21.25
2022-11-20T22:18:46.830Z,20.92
2022-11-20T22:21:15.455Z,22.02
2022-11-20T22:23:42.459Z,24.45
2022-11-20T22:26:14.523Z,24.73
2022-11-20T22:28:41.146Z,24.35
2022-11-20T22:31:10.047Z,25.45
2022-11-20T22:33:38.630Z,25.67
2022-11-20T22:36:06.578Z,26.60
2022-11-20T22:38:39.074Z,24.92
2022-11-20T22:41:16.444Z,24.73
2022-11-20T22:43:44.552Z,26.13
2022-11-20T22:46:13.040Z,25.75
2022-11-20T22:48:41.895Z,26.08
2022-11-20T22:51:14.022Z,24.55
2022-11-20T22:53:42.501Z,26.05
2022-11-20T22:56:12.472Z,24.77
2022-11-20T22:58:40.876Z,26.95
2022-11-20T23:01:18.948Z,25.98
2022-11-20T23:03:48.419Z,25.02
2022-11-20T23:06:18.447Z,25.55
2022-11-20T23:08:45.954Z,23.73
2022-11-20T23:11:18.208Z,25.38
2022-11-20T23:13:45.825Z,23.58
2022-11-20T23:16:17.657Z,24.45
2022-11-20T23:18:44.768Z,23.85
2022-11-20T23:21:13.520Z,25.38
2022-11-20T23:23:41.048Z,25.07
2022-11-20T23:26:10.998Z,24.30
2022-11-20T23:28:39.111Z,24.75
2022-11-20T23:31:06.363Z,23.00
2022-11-20T23:33:36.470Z,24.88
2022-11-20T23:36:03.909Z,26.65
2022-11-20T23:38:30.838Z,24.77
2022-11-20T23:40:57.692Z,21.00
2022-11-20T23:43:24.404Z,26.80
2022-11-20T23:45:57.442Z,26.73
2022-11-20T23:48:28.215Z,26.73
2022-11-20T23:50:55.140Z,27.25
2022-11-20T23:53:23.053Z,26.55
2022-11-20T23:55:54.625Z,26.98
2022-11-20T23:58:23.003Z,27.92
